sensor_id;sensor_type;location;lat;lon;timestamp;P1;durP1;ratioP1;P2;durP2;ratioP2
4409;SDS011;2218;51.408;7.208;2023-04-03T00:01:46;0.80;;;0.70;;
4409;SDS011;2218;51.408;7.208;2023-04-03T00:04:14;0.80;;;0.73;;
4409;SDS011;2218;51.408;7.208;2023-04-03T00:06:41;0.80;;;0.70;;
4409;SDS011;2218;51.408;7.208;2023-04-03T00:09:08;0.80;;;0.70;;
4409;SDS011;2218;51.408;7.208;2023-04-03T00:11:35;0.70;;;0.70;;
4409;SDS011;2218;51.408;7.208;2023-04-03T00:14:02;0.73;;;0.63;;
4409;SDS011;2218;51.408;7.208;2023-04-03T00:16:29;0.80;;;0.70;;
4409;SDS011;2218;51.408;7.208;2023-04-03T00:18:56;0.70;;;0.60;;
4409;SDS011;2218;51.408;7.208;2023-04-03T00:21:24;0.77;;;0.70;;
4409;SDS011;2218;51.408;7.208;2023-04-03T00:23:51;0.70;;;0.60;;
4409;SDS011;2218;51.408;7.208;2023-04-03T00:26:18;0.83;;;0.80;;
4409;SDS011;2218;51.408;7.208;2023-04-03T00:28:45;0.70;;;0.70;;
4409;SDS011;2218;51.408;7.208;2023-04-03T00:31:13;1.00;;;0.80;;
4409;SDS011;2218;51.408;7.208;2023-04-03T00:33:41;0.70;;;0.60;;
4409;SDS011;2218;51.408;7.208;2023-04-03T00:36:09;0.80;;;0.70;;
4409;SDS011;2218;51.408;7.208;2023-04-03T00:38:39;0.80;;;0.80;;
4409;SDS011;2218;51.408;7.208;2023-04-03T00:41:07;0.77;;;0.77;;
4409;SDS011;2218;51.408;7.208;2023-04-03T00:43:34;1.00;;;0.90;;
4409;SDS011;2218;51.408;7.208;2023-04-03T00:46:01;0.80;;;0.80;;
4409;SDS011;2218;51.408;7.208;2023-04-03T00:48:29;0.80;;;0.70;;
4409;SDS011;2218;51.408;7.208;2023-04-03T00:51:01;0.70;;;0.70;;
4409;SDS011;2218;51.408;7.208;2023-04-03T00:53:33;0.70;;;0.70;;
4409;SDS011;2218;51.408;7.208;2023-04-03T00:56:08;0.70;;;0.60;;
4409;SDS011;2218;51.408;7.208;2023-04-03T00:58:41;0.70;;;0.70;;
4409;SDS011;2218;51.408;7.208;2023-04-03T01:01:16;0.80;;;0.80;;
4409;SDS011;2218;51.408;7.208;2023-04-03T01:03:49;0.80;;;0.80;;
4409;SDS011;2218;51.408;7.208;2023-04-03T01:06:17;0.80;;;0.73;;
4409;SDS011;2218;51.408;7.208;2023-04-03T01:08:50;0.80;;;0.80;;
4409;SDS011;2218;51.408;7.208;2023-04-03T01:11:19;0.70;;;0.60;;
4409;SDS011;2218;51.408;7.208;2023-04-03T01:13:47;0.80;;;0.70;;
4409;SDS011;2218;51.408;7.208;2023-04-03T01:16:14;0.97;;;0.90;;
4409;SDS011;2218;51.408;7.208;2023-04-03T01:18:41;0.80;;;0.70;;
4409;SDS011;2218;51.408;7.208;2023-04-03T01:21:25;0.70;;;0.60;;
4409;SDS011;2218;51.408;7.208;2023-04-03T01:24:35;0.80;;;0.80;;
4409;SDS011;2218;51.408;7.208;2023-04-03T01:27:07;0.73;;;0.70;;
4409;SDS011;2218;51.408;7.208;2023-04-03T01:29:37;0.80;;;0.80;;
4409;SDS011;2218;51.408;7.208;2023-04-03T01:32:07;0.80;;;0.80;;
4409;SDS011;2218;51.408;7.208;2023-04-03T01:34:34;0.70;;;0.70;;
4409;SDS011;2218;51.408;7.208;2023-04-03T01:37:01;0.80;;;0.77;;
4409;SDS011;2218;51.408;7.208;2023-04-03T01:39:28;0.70;;;0.67;;
4409;SDS011;2218;51.408;7.208;2023-04-03T01:41:55;0.70;;;0.70;;
4409;SDS011;2218;51.408;7.208;2023-04-03T01:44:29;0.80;;;0.80;;
4409;SDS011;2218;51.408;7.208;2023-04-03T01:46:56;1.23;;;0.70;;
4409;SDS011;2218;51.408;7.208;2023-04-03T01:49:26;0.83;;;0.83;;
4409;SDS011;2218;51.408;7.208;2023-04-03T01:51:54;0.80;;;0.80;;
4409;SDS011;2218;51.408;7.208;2023-04-03T01:54:21;0.93;;;0.83;;
4409;SDS011;2218;51.408;7.208;2023-04-03T01:56:48;0.80;;;0.80;;
4409;SDS011;2218;51.408;7.208;2023-04-03T01:59:17;0.90;;;0.73;;
4409;SDS011;2218;51.408;7.208;2023-04-03T02:01:44;0.70;;;0.70;;
4409;SDS011;2218;51.408;7.208;2023-04-03T02:04:12;0.70;;;0.67;;
4409;SDS011;2218;51.408;7.208;2023-04-03T02:06:41;1.33;;;0.70;;
4409;SDS011;2218;51.408;7.208;2023-04-03T02:09:08;0.73;;;0.70;;
4409;SDS011;2218;51.408;7.208;2023-04-03T02:11:35;0.80;;;0.70;;
4409;SDS011;2218;51.408;7.208;2023-04-03T02:14:02;1.27;;;1.17;;
4409;SDS011;2218;51.408;7.208;2023-04-03T02:16:29;0.70;;;0.60;;
4409;SDS011;2218;51.408;7.208;2023-04-03T02:18:56;0.80;;;0.73;;
4409;SDS011;2218;51.408;7.208;2023-04-03T02:21:23;0.73;;;0.73;;
4409;SDS011;2218;51.408;7.208;2023-04-03T02:23:52;0.80;;;0.80;;
4409;SDS011;2218;51.408;7.208;2023-04-03T02:26:19;0.77;;;0.73;;
4409;SDS011;2218;51.408;7.208;2023-04-03T02:28:46;0.73;;;0.60;;
4409;SDS011;2218;51.408;7.208;2023-04-03T02:31:13;0.70;;;0.60;;
4409;SDS011;2218;51.408;7.208;2023-04-03T02:33:42;0.70;;;0.70;;
4409;SDS011;2218;51.408;7.208;2023-04-03T02:36:12;1.47;;;0.73;;
4409;SDS011;2218;51.408;7.208;2023-04-03T02:38:42;0.80;;;0.70;;
4409;SDS011;2218;51.408;7.208;2023-04-03T02:41:11;0.70;;;0.70;;
4409;SDS011;2218;51.408;7.208;2023-04-03T02:43:39;0.70;;;0.60;;
4409;SDS011;2218;51.408;7.208;2023-04-03T02:46:06;0.70;;;0.60;;
4409;SDS011;2218;51.408;7.208;2023-04-03T02:48:34;0.70;;;0.60;;
4409;SDS011;2218;51.408;7.208;2023-04-03T02:51:01;0.80;;;0.70;;
4409;SDS011;2218;51.408;7.208;2023-04-03T02:53:28;0.70;;;0.70;;
4409;SDS011;2218;51.408;7.208;2023-04-03T02:55:55;0.80;;;0.70;;
4409;SDS011;2218;51.408;7.208;2023-04-03T02:58:24;0.80;;;0.70;;
4409;SDS011;2218;51.408;7.208;2023-04-03T03:00:53;0.70;;;0.60;;
4409;SDS011;2218;51.408;7.208;2023-04-03T03:03:20;0.80;;;0.60;;
4409;SDS011;2218;51.408;7.208;2023-04-03T03:05:48;0.70;;;0.50;;
4409;SDS011;2218;51.408;7.208;2023-04-03T03:08:14;0.70;;;0.60;;
4409;SDS011;2218;51.408;7.208;2023-04-03T03:10:45;1.00;;;0.90;;
4409;SDS011;2218;51.408;7.208;2023-04-03T03:13:12;0.70;;;0.70;;
4409;SDS011;2218;51.408;7.208;2023-04-03T03:15:40;0.70;;;0.60;;
4409;SDS011;2218;51.408;7.208;2023-04-03T03:18:07;0.70;;;0.60;;
4409;SDS011;2218;51.408;7.208;2023-04-03T03:20:34;0.70;;;0.60;;
4409;SDS011;2218;51.408;7.208;2023-04-03T03:23:01;0.70;;;0.60;;
4409;SDS011;2218;51.408;7.208;2023-04-03T03:25:28;0.80;;;0.80;;
4409;SDS011;2218;51.408;7.208;2023-04-03T03:27:55;0.70;;;0.57;;
4409;SDS011;2218;51.408;7.208;2023-04-03T03:30:22;0.70;;;0.60;;
4409;SDS011;2218;51.408;7.208;2023-04-03T03:32:51;0.80;;;0.60;;
4409;SDS011;2218;51.408;7.208;2023-04-03T03:35:19;0.70;;;0.70;;
4409;SDS011;2218;51.408;7.208;2023-04-03T03:37:46;0.70;;;0.60;;
4409;SDS011;2218;51.408;7.208;2023-04-03T03:40:13;0.70;;;0.50;;
4409;SDS011;2218;51.408;7.208;2023-04-03T03:42:40;0.70;;;0.50;;
4409;SDS011;2218;51.408;7.208;2023-04-03T03:45:08;0.70;;;0.60;;
4409;SDS011;2218;51.408;7.208;2023-04-03T03:47:36;1.10;;;0.80;;
4409;SDS011;2218;51.408;7.208;2023-04-03T03:50:05;0.70;;;0.50;;
4409;SDS011;2218;51.408;7.208;2023-04-03T03:52:34;0.70;;;0.50;;
4409;SDS011;2218;51.408;7.208;2023-04-03T03:55:01;0.70;;;0.60;;
4409;SDS011;2218;51.408;7.208;2023-04-03T03:57:29;0.90;;;0.70;;
4409;SDS011;2218;51.408;7.208;2023-04-03T03:59:56;0.70;;;0.50;;
4409;SDS011;2218;51.408;7.208;2023-04-03T04:02:24;0.70;;;0.50;;
4409;SDS011;2218;51.408;7.208;2023-04-03T04:04:52;1.07;;;0.70;;
4409;SDS011;2218;51.408;7.208;2023-04-03T04:07:20;0.70;;;0.50;;
4409;SDS011;2218;51.408;7.208;2023-04-03T04:09:47;0.70;;;0.50;;
4409;SDS011;2218;51.408;7.208;2023-04-03T04:12:15;0.97;;;0.60;;
4409;SDS011;2218;51.408;7.208;2023-04-03T04:14:41;0.77;;;0.50;;
4409;SDS011;2218;51.408;7.208;2023-04-03T04:17:12;0.70;;;0.60;;
4409;SDS011;2218;51.408;7.208;2023-04-03T04:19:39;0.70;;;0.53;;
4409;SDS011;2218;51.408;7.208;2023-04-03T04:22:06;0.70;;;0.60;;
4409;SDS011;2218;51.408;7.208;2023-04-03T04:24:34;0.70;;;0.60;;
4409;SDS011;2218;51.408;7.208;2023-04-03T04:27:02;0.70;;;0.50;;
4409;SDS011;2218;51.408;7.208;2023-04-03T04:29:32;0.80;;;0.70;;
4409;SDS011;2218;51.408;7.208;2023-04-03T04:32:01;0.80;;;0.50;;
4409;SDS011;2218;51.408;7.208;2023-04-03T04:34:28;0.70;;;0.60;;
4409;SDS011;2218;51.408;7.208;2023-04-03T04:36:56;0.63;;;0.50;;
4409;SDS011;2218;51.408;7.208;2023-04-03T04:39:24;0.70;;;0.50;;
4409;SDS011;2218;51.408;7.208;2023-04-03T04:41:55;0.70;;;0.60;;
4409;SDS011;2218;51.408;7.208;2023-04-03T04:44:24;0.70;;;0.60;;
4409;SDS011;2218;51.408;7.208;2023-04-03T04:46:51;0.73;;;0.60;;
4409;SDS011;2218;51.408;7.208;2023-04-03T04:49:20;0.70;;;0.50;;
4409;SDS011;2218;51.408;7.208;2023-04-03T04:51:47;0.80;;;0.53;;
4409;SDS011;2218;51.408;7.208;2023-04-03T04:54:16;0.70;;;0.50;;
4409;SDS011;2218;51.408;7.208;2023-04-03T04:56:46;0.70;;;0.57;;
4409;SDS011;2218;51.408;7.208;2023-04-03T04:59:15;0.70;;;0.50;;
4409;SDS011;2218;51.408;7.208;2023-04-03T05:01:42;0.70;;;0.57;;
4409;SDS011;2218;51.408;7.208;2023-04-03T05:04:14;0.70;;;0.50;;
4409;SDS011;2218;51.408;7.208;2023-04-03T05:06:42;0.60;;;0.50;;
4409;SDS011;2218;51.408;7.208;2023-04-03T05:09:14;0.70;;;0.57;;
4409;SDS011;2218;51.408;7.208;2023-04-03T05:11:43;0.70;;;0.60;;
4409;SDS011;2218;51.408;7.208;2023-04-03T05:14:11;0.70;;;0.50;;
4409;SDS011;2218;51.408;7.208;2023-04-03T05:16:40;0.70;;;0.50;;
4409;SDS011;2218;51.408;7.208;2023-04-03T05:19:07;0.60;;;0.40;;
4409;SDS011;2218;51.408;7.208;2023-04-03T05:21:35;0.60;;;0.40;;
4409;SDS011;2218;51.408;7.208;2023-04-03T05:24:07;0.60;;;0.50;;
4409;SDS011;2218;51.408;7.208;2023-04-03T05:26:37;0.90;;;0.60;;
4409;SDS011;2218;51.408;7.208;2023-04-03T05:29:05;0.60;;;0.40;;
4409;SDS011;2218;51.408;7.208;2023-04-03T05:31:32;0.70;;;0.50;;
4409;SDS011;2218;51.408;7.208;2023-04-03T05:34:01;0.67;;;0.50;;
4409;SDS011;2218;51.408;7.208;2023-04-03T05:36:31;0.70;;;0.40;;
4409;SDS011;2218;51.408;7.208;2023-04-03T05:39:02;0.70;;;0.50;;
4409;SDS011;2218;51.408;7.208;2023-04-03T05:41:30;0.67;;;0.50;;
4409;SDS011;2218;51.408;7.208;2023-04-03T05:43:57;0.70;;;0.47;;
4409;SDS011;2218;51.408;7.208;2023-04-03T05:46:24;0.70;;;0.50;;
4409;SDS011;2218;51.408;7.208;2023-04-03T05:48:54;0.67;;;0.40;;
4409;SDS011;2218;51.408;7.208;2023-04-03T05:51:28;0.60;;;0.50;;
4409;SDS011;2218;51.408;7.208;2023-04-03T05:54:16;0.70;;;0.53;;
4409;SDS011;2218;51.408;7.208;2023-04-03T05:56:48;0.60;;;0.50;;
4409;SDS011;2218;51.408;7.208;2023-04-03T05:59:16;0.70;;;0.50;;
4409;SDS011;2218;51.408;7.208;2023-04-03T06:01:44;0.70;;;0.50;;
4409;SDS011;2218;51.408;7.208;2023-04-03T06:04:11;0.70;;;0.50;;
4409;SDS011;2218;51.408;7.208;2023-04-03T06:06:44;0.70;;;0.50;;
4409;SDS011;2218;51.408;7.208;2023-04-03T06:09:14;0.70;;;0.63;;
4409;SDS011;2218;51.408;7.208;2023-04-03T06:11:43;0.60;;;0.40;;
4409;SDS011;2218;51.408;7.208;2023-04-03T06:14:10;0.60;;;0.43;;
4409;SDS011;2218;51.408;7.208;2023-04-03T06:16:38;0.60;;;0.50;;
4409;SDS011;2218;51.408;7.208;2023-04-03T06:19:06;0.60;;;0.50;;
4409;SDS011;2218;51.408;7.208;2023-04-03T06:21:37;0.70;;;0.50;;
4409;SDS011;2218;51.408;7.208;2023-04-03T06:24:06;0.70;;;0.50;;
4409;SDS011;2218;51.408;7.208;2023-04-03T06:26:33;0.70;;;0.60;;
4409;SDS011;2218;51.408;7.208;2023-04-03T06:29:00;0.70;;;0.40;;
4409;SDS011;2218;51.408;7.208;2023-04-03T06:31:27;0.70;;;0.50;;
4409;SDS011;2218;51.408;7.208;2023-04-03T06:33:55;0.70;;;0.50;;
4409;SDS011;2218;51.408;7.208;2023-04-03T06:36:22;0.70;;;0.50;;
4409;SDS011;2218;51.408;7.208;2023-04-03T06:38:49;0.70;;;0.50;;
4409;SDS011;2218;51.408;7.208;2023-04-03T06:41:17;0.70;;;0.60;;
4409;SDS011;2218;51.408;7.208;2023-04-03T06:43:44;0.70;;;0.43;;
4409;SDS011;2218;51.408;7.208;2023-04-03T06:46:13;0.80;;;0.60;;
4409;SDS011;2218;51.408;7.208;2023-04-03T06:48:42;0.70;;;0.40;;
4409;SDS011;2218;51.408;7.208;2023-04-03T06:51:19;0.80;;;0.50;;
4409;SDS011;2218;51.408;7.208;2023-04-03T06:53:49;0.70;;;0.50;;
4409;SDS011;2218;51.408;7.208;2023-04-03T06:56:20;0.70;;;0.50;;
4409;SDS011;2218;51.408;7.208;2023-04-03T06:58:48;0.60;;;0.40;;
4409;SDS011;2218;51.408;7.208;2023-04-03T07:01:16;0.70;;;0.50;;
4409;SDS011;2218;51.408;7.208;2023-04-03T07:03:44;0.70;;;0.40;;
4409;SDS011;2218;51.408;7.208;2023-04-03T07:06:13;0.70;;;0.50;;
4409;SDS011;2218;51.408;7.208;2023-04-03T07:08:41;0.60;;;0.40;;
4409;SDS011;2218;51.408;7.208;2023-04-03T07:11:09;0.60;;;0.40;;
4409;SDS011;2218;51.408;7.208;2023-04-03T07:13:39;0.63;;;0.50;;
4409;SDS011;2218;51.408;7.208;2023-04-03T07:16:07;0.80;;;0.50;;
4409;SDS011;2218;51.408;7.208;2023-04-03T07:18:35;0.70;;;0.50;;
4409;SDS011;2218;51.408;7.208;2023-04-03T07:21:02;1.97;;;0.50;;
4409;SDS011;2218;51.408;7.208;2023-04-03T07:23:30;0.70;;;0.50;;
4409;SDS011;2218;51.408;7.208;2023-04-03T07:25:57;0.70;;;0.50;;
4409;SDS011;2218;51.408;7.208;2023-04-03T07:28:24;0.90;;;0.60;;
4409;SDS011;2218;51.408;7.208;2023-04-03T07:30:53;0.67;;;0.50;;
4409;SDS011;2218;51.408;7.208;2023-04-03T07:33:26;1.10;;;0.70;;
4409;SDS011;2218;51.408;7.208;2023-04-03T07:35:53;0.70;;;0.50;;
4409;SDS011;2218;51.408;7.208;2023-04-03T07:38:20;0.73;;;0.53;;
4409;SDS011;2218;51.408;7.208;2023-04-03T07:40:48;0.60;;;0.40;;
4409;SDS011;2218;51.408;7.208;2023-04-03T07:43:18;0.73;;;0.50;;
4409;SDS011;2218;51.408;7.208;2023-04-03T07:45:47;1.10;;;0.40;;
4409;SDS011;2218;51.408;7.208;2023-04-03T07:48:17;0.87;;;0.60;;
4409;SDS011;2218;51.408;7.208;2023-04-03T07:50:46;0.97;;;0.70;;
4409;SDS011;2218;51.408;7.208;2023-04-03T07:53:14;0.70;;;0.43;;
4409;SDS011;2218;51.408;7.208;2023-04-03T07:55:41;0.70;;;0.50;;
4409;SDS011;2218;51.408;7.208;2023-04-03T07:58:12;0.70;;;0.43;;
4409;SDS011;2218;51.408;7.208;2023-04-03T08:00:41;0.60;;;0.47;;
4409;SDS011;2218;51.408;7.208;2023-04-03T08:03:09;0.70;;;0.53;;
4409;SDS011;2218;51.408;7.208;2023-04-03T08:05:39;1.20;;;0.50;;
4409;SDS011;2218;51.408;7.208;2023-04-03T08:08:07;0.70;;;0.50;;
4409;SDS011;2218;51.408;7.208;2023-04-03T08:10:37;0.70;;;0.50;;
4409;SDS011;2218;51.408;7.208;2023-04-03T08:13:06;0.70;;;0.50;;
4409;SDS011;2218;51.408;7.208;2023-04-03T08:15:35;1.57;;;0.50;;
4409;SDS011;2218;51.408;7.208;2023-04-03T08:18:02;0.70;;;0.60;;
4409;SDS011;2218;51.408;7.208;2023-04-03T08:20:30;0.77;;;0.50;;
4409;SDS011;2218;51.408;7.208;2023-04-03T08:22:58;0.70;;;0.40;;
4409;SDS011;2218;51.408;7.208;2023-04-03T08:25:25;0.70;;;0.50;;
4409;SDS011;2218;51.408;7.208;2023-04-03T08:27:54;0.90;;;0.70;;
4409;SDS011;2218;51.408;7.208;2023-04-03T08:30:21;0.70;;;0.50;;
4409;SDS011;2218;51.408;7.208;2023-04-03T08:32:48;0.60;;;0.40;;
4409;SDS011;2218;51.408;7.208;2023-04-03T08:35:15;0.63;;;0.40;;
4409;SDS011;2218;51.408;7.208;2023-04-03T08:37:42;1.10;;;0.50;;
4409;SDS011;2218;51.408;7.208;2023-04-03T08:40:12;0.70;;;0.40;;
4409;SDS011;2218;51.408;7.208;2023-04-03T08:42:45;1.47;;;0.50;;
4409;SDS011;2218;51.408;7.208;2023-04-03T08:45:32;0.70;;;0.50;;
4409;SDS011;2218;51.408;7.208;2023-04-03T08:48:12;0.60;;;0.40;;
4409;SDS011;2218;51.408;7.208;2023-04-03T08:50:47;1.20;;;0.80;;
4409;SDS011;2218;51.408;7.208;2023-04-03T08:53:20;0.90;;;0.50;;
4409;SDS011;2218;51.408;7.208;2023-04-03T08:55:55;0.70;;;0.47;;
4409;SDS011;2218;51.408;7.208;2023-04-03T08:58:23;1.53;;;0.60;;
4409;SDS011;2218;51.408;7.208;2023-04-03T09:00:55;0.80;;;0.50;;
4409;SDS011;2218;51.408;7.208;2023-04-03T09:03:28;0.70;;;0.60;;
4409;SDS011;2218;51.408;7.208;2023-04-03T09:05:59;0.70;;;0.50;;
4409;SDS011;2218;51.408;7.208;2023-04-03T09:08:31;0.70;;;0.50;;
4409;SDS011;2218;51.408;7.208;2023-04-03T09:11:09;0.70;;;0.50;;
4409;SDS011;2218;51.408;7.208;2023-04-03T09:13:49;1.80;;;0.50;;
4409;SDS011;2218;51.408;7.208;2023-04-03T09:16:28;1.43;;;0.80;;
4409;SDS011;2218;51.408;7.208;2023-04-03T09:19:12;0.70;;;0.50;;
4409;SDS011;2218;51.408;7.208;2023-04-03T09:21:48;2.00;;;0.50;;
4409;SDS011;2218;51.408;7.208;2023-04-03T09:24:16;0.70;;;0.40;;
4409;SDS011;2218;51.408;7.208;2023-04-03T09:26:48;0.73;;;0.50;;
4409;SDS011;2218;51.408;7.208;2023-04-03T09:29:24;2.20;;;0.60;;
4409;SDS011;2218;51.408;7.208;2023-04-03T09:31:52;2.10;;;0.60;;
4409;SDS011;2218;51.408;7.208;2023-04-03T09:34:27;1.13;;;0.60;;
4409;SDS011;2218;51.408;7.208;2023-04-03T09:36:58;0.70;;;0.50;;
4409;SDS011;2218;51.408;7.208;2023-04-03T09:39:31;1.73;;;0.40;;
4409;SDS011;2218;51.408;7.208;2023-04-03T09:42:18;0.87;;;0.60;;
4409;SDS011;2218;51.408;7.208;2023-04-03T09:44:53;0.70;;;0.50;;
4409;SDS011;2218;51.408;7.208;2023-04-03T09:47:25;0.90;;;0.50;;
4409;SDS011;2218;51.408;7.208;2023-04-03T09:50:08;0.70;;;0.43;;
4409;SDS011;2218;51.408;7.208;2023-04-03T09:52:46;0.70;;;0.43;;
4409;SDS011;2218;51.408;7.208;2023-04-03T09:55:17;0.70;;;0.40;;
4409;SDS011;2218;51.408;7.208;2023-04-03T09:57:53;0.70;;;0.50;;
4409;SDS011;2218;51.408;7.208;2023-04-03T10:00:21;0.80;;;0.60;;
4409;SDS011;2218;51.408;7.208;2023-04-03T10:02:53;1.63;;;0.50;;
4409;SDS011;2218;51.408;7.208;2023-04-03T10:05:30;0.70;;;0.50;;
4409;SDS011;2218;51.408;7.208;2023-04-03T10:08:09;0.80;;;0.50;;
4409;SDS011;2218;51.408;7.208;2023-04-03T10:10:48;0.60;;;0.40;;
4409;SDS011;2218;51.408;7.208;2023-04-03T10:13:53;1.00;;;0.50;;
4409;SDS011;2218;51.408;7.208;2023-04-03T10:16:25;3.07;;;0.60;;
4409;SDS011;2218;51.408;7.208;2023-04-03T10:22:02;2.20;;;0.50;;
4409;SDS011;2218;51.408;7.208;2023-04-03T10:24:43;1.83;;;0.47;;
4409;SDS011;2218;51.408;7.208;2023-04-03T10:27:22;0.73;;;0.50;;
4409;SDS011;2218;51.408;7.208;2023-04-03T10:30:11;0.80;;;0.50;;
4409;SDS011;2218;51.408;7.208;2023-04-03T10:33:03;0.70;;;0.50;;
4409;SDS011;2218;51.408;7.208;2023-04-03T10:35:48;0.90;;;0.50;;
4409;SDS011;2218;51.408;7.208;2023-04-03T10:38:37;0.70;;;0.50;;
4409;SDS011;2218;51.408;7.208;2023-04-03T10:41:20;0.70;;;0.50;;
4409;SDS011;2218;51.408;7.208;2023-04-03T10:44:00;0.77;;;0.77;;
4409;SDS011;2218;51.408;7.208;2023-04-03T10:46:41;0.70;;;0.40;;
4409;SDS011;2218;51.408;7.208;2023-04-03T10:49:18;0.80;;;0.53;;
4409;SDS011;2218;51.408;7.208;2023-04-03T10:52:10;1.10;;;0.43;;
4409;SDS011;2218;51.408;7.208;2023-04-03T10:54:46;0.70;;;0.43;;
4409;SDS011;2218;51.408;7.208;2023-04-03T10:57:29;0.70;;;0.50;;
4409;SDS011;2218;51.408;7.208;2023-04-03T10:59:57;0.70;;;0.50;;
4409;SDS011;2218;51.408;7.208;2023-04-03T11:02:31;0.90;;;0.53;;
4409;SDS011;2218;51.408;7.208;2023-04-03T11:05:03;0.70;;;0.40;;
4409;SDS011;2218;51.408;7.208;2023-04-03T11:07:40;1.07;;;0.50;;
4409;SDS011;2218;51.408;7.208;2023-04-03T11:10:14;0.70;;;0.50;;
4409;SDS011;2218;51.408;7.208;2023-04-03T11:12:51;0.80;;;0.50;;
4409;SDS011;2218;51.408;7.208;2023-04-03T11:15:27;0.70;;;0.60;;
4409;SDS011;2218;51.408;7.208;2023-04-03T11:18:02;0.70;;;0.50;;
4409;SDS011;2218;51.408;7.208;2023-04-03T11:20:35;0.80;;;0.50;;
4409;SDS011;2218;51.408;7.208;2023-04-03T11:23:11;0.70;;;0.40;;
4409;SDS011;2218;51.408;7.208;2023-04-03T11:25:47;0.70;;;0.40;;
4409;SDS011;2218;51.408;7.208;2023-04-03T11:28:20;0.60;;;0.40;;
4409;SDS011;2218;51.408;7.208;2023-04-03T11:30:47;0.60;;;0.50;;
4409;SDS011;2218;51.408;7.208;2023-04-03T11:33:34;1.00;;;0.50;;
4409;SDS011;2218;51.408;7.208;2023-04-03T11:36:18;1.20;;;0.60;;
4409;SDS011;2218;51.408;7.208;2023-04-03T11:38:50;1.53;;;0.50;;
4409;SDS011;2218;51.408;7.208;2023-04-03T11:41:25;0.83;;;0.50;;
4409;SDS011;2218;51.408;7.208;2023-04-03T11:43:56;0.70;;;0.50;;
4409;SDS011;2218;51.408;7.208;2023-04-03T11:55:41;1.47;;;0.70;;
4409;SDS011;2218;51.408;7.208;2023-04-03T11:58:31;0.67;;;0.50;;
4409;SDS011;2218;51.408;7.208;2023-04-03T12:01:05;0.80;;;0.50;;
4409;SDS011;2218;51.408;7.208;2023-04-03T12:12:57;0.80;;;0.50;;
4409;SDS011;2218;51.408;7.208;2023-04-03T12:21:23;1.13;;;0.50;;
4409;SDS011;2218;51.408;7.208;2023-04-03T12:24:36;0.70;;;0.50;;
4409;SDS011;2218;51.408;7.208;2023-04-03T12:27:11;1.27;;;0.50;;
4409;SDS011;2218;51.408;7.208;2023-04-03T12:29:51;0.70;;;0.50;;
4409;SDS011;2218;51.408;7.208;2023-04-03T12:32:26;1.07;;;0.50;;
4409;SDS011;2218;51.408;7.208;2023-04-03T12:35:20;0.70;;;0.50;;
4409;SDS011;2218;51.408;7.208;2023-04-03T12:41:14;0.70;;;0.40;;
4409;SDS011;2218;51.408;7.208;2023-04-03T12:43:52;0.70;;;0.50;;
4409;SDS011;2218;51.408;7.208;2023-04-03T12:46:44;0.63;;;0.40;;
4409;SDS011;2218;51.408;7.208;2023-04-03T12:49:18;0.80;;;0.50;;
4409;SDS011;2218;51.408;7.208;2023-04-03T12:52:02;0.70;;;0.50;;
4409;SDS011;2218;51.408;7.208;2023-04-03T12:54:41;0.73;;;0.40;;
4409;SDS011;2218;51.408;7.208;2023-04-03T12:57:16;1.00;;;0.50;;
4409;SDS011;2218;51.408;7.208;2023-04-03T12:59:46;0.70;;;0.50;;
4409;SDS011;2218;51.408;7.208;2023-04-03T13:02:20;0.70;;;0.50;;
4409;SDS011;2218;51.408;7.208;2023-04-03T13:04:50;0.60;;;0.40;;
4409;SDS011;2218;51.408;7.208;2023-04-03T13:07:23;0.70;;;0.50;;
4409;SDS011;2218;51.408;7.208;2023-04-03T13:09:57;1.87;;;0.47;;
4409;SDS011;2218;51.408;7.208;2023-04-03T13:12:28;0.70;;;0.40;;
4409;SDS011;2218;51.408;7.208;2023-04-03T13:14:57;0.70;;;0.50;;
4409;SDS011;2218;51.408;7.208;2023-04-03T13:17:29;0.90;;;0.53;;
4409;SDS011;2218;51.408;7.208;2023-04-03T13:20:17;1.23;;;0.40;;
4409;SDS011;2218;51.408;7.208;2023-04-03T13:22:49;0.60;;;0.40;;
4409;SDS011;2218;51.408;7.208;2023-04-03T13:25:23;0.80;;;0.50;;
4409;SDS011;2218;51.408;7.208;2023-04-03T13:27:54;0.70;;;0.50;;
4409;SDS011;2218;51.408;7.208;2023-04-03T13:30:25;0.70;;;0.50;;
4409;SDS011;2218;51.408;7.208;2023-04-03T13:32:57;0.70;;;0.47;;
4409;SDS011;2218;51.408;7.208;2023-04-03T13:35:29;0.90;;;0.40;;
4409;SDS011;2218;51.408;7.208;2023-04-03T13:38:02;0.70;;;0.40;;
4409;SDS011;2218;51.408;7.208;2023-04-03T13:40:47;0.60;;;0.40;;
4409;SDS011;2218;51.408;7.208;2023-04-03T13:43:17;0.90;;;0.50;;
4409;SDS011;2218;51.408;7.208;2023-04-03T13:45:56;1.33;;;0.60;;
4409;SDS011;2218;51.408;7.208;2023-04-03T13:48:34;0.70;;;0.50;;
4409;SDS011;2218;51.408;7.208;2023-04-03T13:51:13;0.80;;;0.50;;
4409;SDS011;2218;51.408;7.208;2023-04-03T13:53:48;0.60;;;0.40;;
4409;SDS011;2218;51.408;7.208;2023-04-03T13:56:26;0.60;;;0.40;;
4409;SDS011;2218;51.408;7.208;2023-04-03T14:01:51;0.70;;;0.50;;
4409;SDS011;2218;51.408;7.208;2023-04-03T14:04:21;0.70;;;0.50;;
4409;SDS011;2218;51.408;7.208;2023-04-03T14:06:54;0.60;;;0.40;;
4409;SDS011;2218;51.408;7.208;2023-04-03T14:09:21;0.60;;;0.40;;
4409;SDS011;2218;51.408;7.208;2023-04-03T14:11:52;0.60;;;0.40;;
4409;SDS011;2218;51.408;7.208;2023-04-03T14:14:24;0.60;;;0.40;;
4409;SDS011;2218;51.408;7.208;2023-04-03T14:16:58;0.60;;;0.40;;
4409;SDS011;2218;51.408;7.208;2023-04-03T14:19:28;0.70;;;0.50;;
4409;SDS011;2218;51.408;7.208;2023-04-03T14:21:59;0.70;;;0.50;;
4409;SDS011;2218;51.408;7.208;2023-04-03T14:24:32;0.70;;;0.50;;
4409;SDS011;2218;51.408;7.208;2023-04-03T14:26:59;0.70;;;0.40;;
4409;SDS011;2218;51.408;7.208;2023-04-03T14:29:26;1.23;;;0.50;;
4409;SDS011;2218;51.408;7.208;2023-04-03T14:31:53;0.93;;;0.40;;
4409;SDS011;2218;51.408;7.208;2023-04-03T14:34:20;0.70;;;0.47;;
4409;SDS011;2218;51.408;7.208;2023-04-03T14:36:47;0.60;;;0.40;;
4409;SDS011;2218;51.408;7.208;2023-04-03T14:39:17;0.60;;;0.40;;
4409;SDS011;2218;51.408;7.208;2023-04-03T14:41:44;0.70;;;0.50;;
4409;SDS011;2218;51.408;7.208;2023-04-03T14:44:12;0.80;;;0.50;;
4409;SDS011;2218;51.408;7.208;2023-04-03T14:46:39;0.60;;;0.40;;
4409;SDS011;2218;51.408;7.208;2023-04-03T14:49:12;0.70;;;0.40;;
4409;SDS011;2218;51.408;7.208;2023-04-03T14:51:43;0.70;;;0.40;;
4409;SDS011;2218;51.408;7.208;2023-04-03T14:54:12;0.87;;;0.43;;
4409;SDS011;2218;51.408;7.208;2023-04-03T14:56:44;0.70;;;0.50;;
4409;SDS011;2218;51.408;7.208;2023-04-03T14:59:12;0.60;;;0.40;;
4409;SDS011;2218;51.408;7.208;2023-04-03T15:01:42;0.77;;;0.40;;
4409;SDS011;2218;51.408;7.208;2023-04-03T15:04:10;0.70;;;0.50;;
4409;SDS011;2218;51.408;7.208;2023-04-03T15:06:39;0.70;;;0.47;;
4409;SDS011;2218;51.408;7.208;2023-04-03T15:09:10;2.30;;;0.40;;
4409;SDS011;2218;51.408;7.208;2023-04-03T15:11:47;0.60;;;0.40;;
4409;SDS011;2218;51.408;7.208;2023-04-03T15:14:15;0.70;;;0.50;;
4409;SDS011;2218;51.408;7.208;2023-04-03T15:16:42;0.60;;;0.40;;
4409;SDS011;2218;51.408;7.208;2023-04-03T15:19:09;0.60;;;0.40;;
4409;SDS011;2218;51.408;7.208;2023-04-03T15:21:37;0.60;;;0.40;;
4409;SDS011;2218;51.408;7.208;2023-04-03T15:24:04;0.70;;;0.50;;
4409;SDS011;2218;51.408;7.208;2023-04-03T15:26:33;0.70;;;0.50;;
4409;SDS011;2218;51.408;7.208;2023-04-03T15:29:00;0.60;;;0.40;;
4409;SDS011;2218;51.408;7.208;2023-04-03T15:31:27;1.00;;;0.50;;
4409;SDS011;2218;51.408;7.208;2023-04-03T15:33:54;0.70;;;0.40;;
4409;SDS011;2218;51.408;7.208;2023-04-03T15:36:21;0.70;;;0.40;;
4409;SDS011;2218;51.408;7.208;2023-04-03T15:38:48;0.63;;;0.40;;
4409;SDS011;2218;51.408;7.208;2023-04-03T15:41:15;1.00;;;0.47;;
4409;SDS011;2218;51.408;7.208;2023-04-03T15:43:44;0.70;;;0.50;;
4409;SDS011;2218;51.408;7.208;2023-04-03T15:46:11;0.70;;;0.50;;
4409;SDS011;2218;51.408;7.208;2023-04-03T15:48:39;0.60;;;0.40;;
4409;SDS011;2218;51.408;7.208;2023-04-03T15:51:06;0.60;;;0.40;;
4409;SDS011;2218;51.408;7.208;2023-04-03T15:53:33;0.60;;;0.40;;
4409;SDS011;2218;51.408;7.208;2023-04-03T15:56:00;0.60;;;0.40;;
4409;SDS011;2218;51.408;7.208;2023-04-03T15:58:27;0.60;;;0.43;;
4409;SDS011;2218;51.408;7.208;2023-04-03T16:00:55;0.70;;;0.40;;
4409;SDS011;2218;51.408;7.208;2023-04-03T16:03:23;0.60;;;0.40;;
4409;SDS011;2218;51.408;7.208;2023-04-03T16:05:50;0.70;;;0.43;;
4409;SDS011;2218;51.408;7.208;2023-04-03T16:08:17;0.60;;;0.50;;
4409;SDS011;2218;51.408;7.208;2023-04-03T16:10:45;0.60;;;0.40;;
4409;SDS011;2218;51.408;7.208;2023-04-03T16:13:12;0.60;;;0.40;;